| time (UTC) | temp F | wind direction | speed knots | gust knots | rain 1hr in | rain 24hr in | rain mn in | humidity % | barometer mb |
| 20260507081530 | 67 | 235 | 1.7 | 3.5 | 0.00 | 0.03 | 0.03 | 63 | 1014.1 |
| 20260507074533 | 70 | 234 | 1.7 | 5.2 | 0.00 | 0.03 | 0.03 | 57 | 1013.9 |
| 20260507071519 | 74 | 151 | 0.0 | 1.7 | 0.00 | 0.03 | 0.03 | 56 | 1013.8 |
| 20260507064524 | 72 | 254 | 0.0 | 0.9 | 0.00 | 0.03 | 0.03 | 57 | 1013.8 |
| 20260507061529 | 72 | 220 | 0.0 | 1.7 | 0.00 | 0.03 | 0.03 | 57 | 1013.6 |
| 20260507054534 | 63 | 109 | 0.0 | 0.9 | 0.00 | 0.03 | 0.03 | 77 | 1013.6 |
| 20260507051517 | 61 | 101 | 0.0 | 0.9 | 0.00 | 0.03 | 0.03 | 80 | 1013.4 |
| 20260507044519 | 58 | 140 | 0.0 | 0.9 | 0.00 | 0.03 | 0.03 | 86 | 1012.9 |
| 20260507041525 | 57 | 234 | 0.9 | 1.7 | 0.00 | 0.03 | 0.03 | 86 | 1012.6 |
| 20260507034530 | 57 | 247 | 0.0 | 0.9 | 0.00 | 0.03 | 0.03 | 89 | 1012.5 |
| 20260507031535 | 57 | 0.0 | 0.0 | 0.01 | 0.03 | 0.03 | 86 | 1012.3 | |
| 20260507024520 | 58 | 0.0 | 0.0 | 0.02 | 0.03 | 0.03 | 84 | 1012.5 | |
| 20260507021522 | 58 | 238 | 0.0 | 0.9 | 0.02 | 0.02 | 0.02 | 81 | 1012.3 |
| 20260507014524 | 59 | 0.0 | 0.0 | 0.01 | 0.01 | 0.01 | 79 | 1012.3 | |
| 20260507011526 | 60 | 226 | 0.0 | 0.9 | 0.00 | 0.00 | 0.00 | 76 | 1012.2 |
| 20260507004531 | 61 | 221 | 0.0 | 0.9 | 0.00 | 0.00 | 0.00 | 73 | 1012.2 |
| 20260507001516 | 61 | 0.0 | 0.0 | 0.00 | 0.00 | 0.00 | 72 | 1012.1 | |
| 20260506234521 | 62 | 236 | 0.9 | 2.6 | 0.00 | 0.00 | 0.00 | 71 | 1012.1 |
| 20260506231526 | 62 | 228 | 3.5 | 6.1 | 0.00 | 0.00 | 0.00 | 69 | 1012.1 |
| 20260506224530 | 63 | 220 | 1.7 | 3.5 | 0.00 | 0.00 | 0.00 | 67 | 1012.3 |
| 20260506221534 | 62 | 221 | 1.7 | 3.5 | 0.00 | 0.00 | 0.00 | 68 | 1012.4 |
| 20260506214517 | 62 | 203 | 0.0 | 0.9 | 0.00 | 0.00 | 0.00 | 68 | 1012.6 |
| 20260506211522 | 62 | 190 | 0.9 | 2.6 | 0.00 | 0.00 | 0.00 | 68 | 1012.2 |
| 20260506204528 | 63 | 218 | 3.5 | 7.0 | 0.00 | 0.00 | 0.00 | 66 | 1012.5 |
| 20260506201533 | 64 | 209 | 3.5 | 7.8 | 0.00 | 0.00 | 0.00 | 64 | 1012.5 |
| 20260506194517 | 64 | 169 | 0.9 | 3.5 | 0.00 | 0.00 | 0.00 | 62 | 1012.3 |
| 20260506191520 | 64 | 211 | 3.5 | 7.0 | 0.00 | 0.00 | 0.00 | 61 | 1012.0 |
| 20260506184521 | 64 | 219 | 3.5 | 7.0 | 0.00 | 0.00 | 0.00 | 62 | 1011.6 |
| 20260506181525 | 64 | 217 | 2.6 | 6.1 | 0.00 | 0.00 | 0.00 | 65 | 1011.6 |
| 20260506174530 | 64 | 214 | 2.6 | 6.1 | 0.00 | 0.00 | 0.00 | 66 | 1011.4 |
| 20260506171536 | 64 | 221 | 1.7 | 5.2 | 0.00 | 0.00 | 0.00 | 66 | 1011.3 |
| 20260506164521 | 64 | 219 | 1.7 | 2.6 | 0.00 | 0.00 | 0.00 | 67 | 1011.5 |
| 20260506161525 | 67 | 192 | 4.3 | 11.3 | 0.00 | 0.00 | 0.00 | 59 | 1011.5 |
| 20260506154527 | 69 | 174 | 0.9 | 3.5 | 0.00 | 0.00 | 0.00 | 55 | 1011.3 |
| 20260506151530 | 69 | 220 | 2.6 | 5.2 | 0.00 | 0.00 | 0.00 | 54 | 1011.2 |
| 20260506144516 | 70 | 213 | 2.6 | 6.1 | 0.00 | 0.00 | 0.00 | 52 | 1011.0 |
| 20260506141521 | 72 | 218 | 2.6 | 6.1 | 0.00 | 0.00 | 0.00 | 51 | 1010.9 |
| 20260506134527 | 71 | 214 | 3.5 | 9.6 | 0.00 | 0.00 | 0.00 | 51 | 1011.2 |
| 20260506131530 | 73 | 232 | 3.5 | 7.0 | 0.00 | 0.00 | 0.00 | 48 | 1011.4 |
| 20260506124533 | 72 | 219 | 3.5 | 7.0 | 0.00 | 0.00 | 0.00 | 49 | 1011.5 |
| 20260506121521 | 74 | 219 | 3.5 | 7.8 | 0.00 | 0.00 | 0.00 | 46 | 1011.5 |
| 20260506114521 | 74 | 213 | 3.5 | 7.0 | 0.00 | 0.00 | 0.00 | 47 | 1011.6 |
| 20260506111530 | 75 | 214 | 4.3 | 11.3 | 0.00 | 0.00 | 0.00 | 48 | 1011.5 |
| 20260506104531 | 76 | 191 | 1.7 | 6.1 | 0.00 | 0.00 | 0.00 | 49 | 1011.6 |
| 20260506101516 | 75 | 179 | 1.7 | 5.2 | 0.00 | 0.00 | 0.00 | 47 | 1011.9 |
| 20260506094521 | 70 | 218 | 2.6 | 7.0 | 0.00 | 0.00 | 0.00 | 51 | 1012.1 |
| 20260506091524 | 71 | 187 | 0.9 | 1.7 | 0.00 | 0.00 | 0.00 | 52 | 1012.1 |
| 20260506084527 | 70 | 173 | 0.9 | 1.7 | 0.00 | 0.00 | 0.00 | 50 | 1011.8 |